createdAt,value
2022-11-24T00:00:11.966Z,983.49
2022-11-24T00:01:11.988Z,983.49
2022-11-24T00:02:12.075Z,983.51
2022-11-24T00:03:12.121Z,983.51
2022-11-24T00:04:11.998Z,983.53
2022-11-24T00:05:12.041Z,983.53
2022-11-24T00:06:12.076Z,983.48
2022-11-24T00:07:12.107Z,983.58
2022-11-24T00:08:12.034Z,983.66
2022-11-24T00:09:12.071Z,983.65
2022-11-24T00:10:12.095Z,983.59
2022-11-24T00:11:12.125Z,983.66
2022-11-24T00:12:12.115Z,983.72
2022-11-24T00:13:12.104Z,983.72
2022-11-24T00:14:12.126Z,983.67
2022-11-24T00:15:12.172Z,983.65
2022-11-24T00:16:12.263Z,983.66
2022-11-24T00:17:12.195Z,983.67
2022-11-24T00:18:12.217Z,983.66
2022-11-24T00:19:17.045Z,983.70
2022-11-24T00:20:12.191Z,983.72
2022-11-24T00:21:12.196Z,983.67
2022-11-24T00:22:12.201Z,983.68
2022-11-24T00:23:12.144Z,983.63
2022-11-24T00:24:12.161Z,983.81
2022-11-24T00:25:12.228Z,983.69
2022-11-24T00:26:12.203Z,983.77
2022-11-24T00:27:12.598Z,983.72
2022-11-24T00:28:12.204Z,983.71
2022-11-24T00:29:12.208Z,983.68
2022-11-24T00:30:12.199Z,983.73
2022-11-24T00:31:16.768Z,983.76
2022-11-24T00:32:12.196Z,983.72
2022-11-24T00:33:12.200Z,983.74
2022-11-24T00:34:12.203Z,983.76
2022-11-24T00:35:12.236Z,983.82
2022-11-24T00:36:12.208Z,983.82
2022-11-24T00:37:12.223Z,983.81
2022-11-24T00:38:12.235Z,983.81
2022-11-24T00:39:12.195Z,983.83
2022-11-24T00:40:12.201Z,983.78
2022-11-24T00:41:12.222Z,983.86
2022-11-24T00:42:12.248Z,983.89
2022-11-24T00:43:12.214Z,983.81
2022-11-24T00:44:12.208Z,983.88
2022-11-24T00:45:14.164Z,983.90
2022-11-24T00:46:12.324Z,983.93
2022-11-24T00:47:12.381Z,983.96
2022-11-24T00:48:12.223Z,983.98
2022-11-24T00:49:12.235Z,983.91
2022-11-24T00:50:12.226Z,983.91
2022-11-24T00:51:12.212Z,983.96
2022-11-24T00:52:12.235Z,983.89
2022-11-24T00:53:12.246Z,983.92
2022-11-24T00:54:12.232Z,983.90
2022-11-24T00:55:12.223Z,984.04
2022-11-24T00:56:12.235Z,983.94
2022-11-24T00:57:12.226Z,984.01
2022-11-24T00:58:12.231Z,984.03
2022-11-24T00:59:12.227Z,984.02
2022-11-24T01:00:12.222Z,984.06
2022-11-24T01:01:12.278Z,984.00
2022-11-24T01:02:12.337Z,983.99
2022-11-24T01:03:12.226Z,984.04
2022-11-24T01:04:12.242Z,984.04
2022-11-24T01:05:12.229Z,984.07
2022-11-24T01:06:12.236Z,984.11
2022-11-24T01:07:12.285Z,984.09
2022-11-24T01:08:12.266Z,984.10
2022-11-24T01:09:12.235Z,984.13
2022-11-24T01:10:12.256Z,984.11
2022-11-24T01:11:12.238Z,984.15
2022-11-24T01:12:12.246Z,984.10
2022-11-24T01:13:12.232Z,984.15
2022-11-24T01:14:12.271Z,984.22
2022-11-24T01:15:12.277Z,984.25
2022-11-24T01:16:12.360Z,984.21
2022-11-24T01:17:12.273Z,984.27
2022-11-24T01:18:12.307Z,984.30
2022-11-24T01:19:12.316Z,984.26
2022-11-24T01:20:12.338Z,984.29
2022-11-24T01:21:12.335Z,984.30
2022-11-24T01:22:12.363Z,984.35
2022-11-24T01:23:12.358Z,984.34
2022-11-24T01:24:12.382Z,984.45
2022-11-24T01:25:12.379Z,984.34
2022-11-24T01:26:12.395Z,984.30
2022-11-24T01:27:12.414Z,984.36
2022-11-24T01:28:12.407Z,984.31
2022-11-24T01:29:12.456Z,984.37
2022-11-24T01:30:12.440Z,984.35
2022-11-24T01:31:12.535Z,984.37
2022-11-24T01:32:12.448Z,984.34
2022-11-24T01:33:12.486Z,984.36
2022-11-24T01:34:12.496Z,984.43
2022-11-24T01:35:12.526Z,984.32
2022-11-24T01:36:12.505Z,984.39
2022-11-24T01:37:12.497Z,984.49
2022-11-24T01:38:12.551Z,984.43
2022-11-24T01:39:34.060Z,984.44
2022-11-24T01:40:34.073Z,984.45
2022-11-24T01:41:34.064Z,984.49
2022-11-24T01:42:34.077Z,984.53
2022-11-24T01:43:34.084Z,984.57
2022-11-24T01:44:34.380Z,984.53
2022-11-24T01:45:34.118Z,984.51
2022-11-24T01:46:34.172Z,984.49
2022-11-24T01:47:34.083Z,984.52
2022-11-24T01:48:34.102Z,984.47
2022-11-24T01:49:34.087Z,984.41
2022-11-24T01:50:34.110Z,984.51
2022-11-24T01:51:34.091Z,984.55
2022-11-24T01:52:34.100Z,984.49
2022-11-24T01:53:34.088Z,984.49
2022-11-24T01:54:34.386Z,984.52
2022-11-24T01:55:34.112Z,984.48
2022-11-24T01:56:34.099Z,984.51
2022-11-24T01:57:34.103Z,984.50
2022-11-24T01:58:34.115Z,984.61
2022-11-24T01:59:34.093Z,984.50
2022-11-24T02:00:34.088Z,984.53
2022-11-24T02:01:34.154Z,984.59
2022-11-24T02:02:34.149Z,984.54
2022-11-24T02:03:34.102Z,984.53
2022-11-24T02:04:34.408Z,984.59
2022-11-24T02:05:34.108Z,984.57
2022-11-24T02:06:34.148Z,984.55
2022-11-24T02:07:34.158Z,984.61
2022-11-24T02:08:34.099Z,984.69
2022-11-24T02:09:34.103Z,984.60
2022-11-24T02:10:34.115Z,984.64
2022-11-24T02:11:34.127Z,984.62
2022-11-24T02:12:34.116Z,984.61
2022-11-24T02:13:34.116Z,984.60
2022-11-24T02:14:34.389Z,984.53
2022-11-24T02:15:34.325Z,984.54
2022-11-24T02:16:34.284Z,984.60
2022-11-24T02:17:34.299Z,984.59
2022-11-24T02:18:34.292Z,984.54
2022-11-24T02:19:34.430Z,984.60
2022-11-24T02:20:34.319Z,984.58
2022-11-24T02:21:34.330Z,984.51
2022-11-24T02:22:34.370Z,984.53
2022-11-24T02:23:34.360Z,984.54
2022-11-24T02:24:34.628Z,984.67
2022-11-24T02:25:34.377Z,984.57
2022-11-24T02:26:34.393Z,984.51
2022-11-24T02:27:34.413Z,984.56
2022-11-24T02:28:34.425Z,984.64
2022-11-24T02:29:34.423Z,984.53
2022-11-24T02:30:34.445Z,984.55
2022-11-24T02:31:34.488Z,984.54
2022-11-24T02:32:34.495Z,984.63
2022-11-24T02:33:34.497Z,984.54
2022-11-24T02:34:34.665Z,984.63
2022-11-24T02:35:34.501Z,984.51
2022-11-24T02:36:34.504Z,984.55
2022-11-24T02:37:34.517Z,984.53
2022-11-24T02:38:34.547Z,984.55
2022-11-24T02:39:34.571Z,984.55
2022-11-24T02:40:34.561Z,984.56
2022-11-24T02:41:34.574Z,984.64
2022-11-24T02:42:34.595Z,984.63
2022-11-24T02:43:34.580Z,984.67
2022-11-24T02:44:34.833Z,984.60
2022-11-24T02:45:34.620Z,984.67
2022-11-24T02:46:34.676Z,984.55
2022-11-24T02:47:34.649Z,984.62
2022-11-24T02:48:34.642Z,984.58
2022-11-24T02:49:34.676Z,984.61
2022-11-24T02:50:34.676Z,984.63
2022-11-24T02:51:34.693Z,984.59
2022-11-24T02:52:34.706Z,984.62
2022-11-24T02:53:34.702Z,984.63
2022-11-24T02:54:35.061Z,984.66
2022-11-24T02:55:34.763Z,984.62
2022-11-24T02:56:34.772Z,984.61
2022-11-24T02:57:34.778Z,984.68
2022-11-24T02:58:34.789Z,984.68
2022-11-24T02:59:34.789Z,984.65
2022-11-24T03:00:34.804Z,984.69
2022-11-24T03:01:34.875Z,984.68
2022-11-24T03:02:34.861Z,984.69
2022-11-24T03:03:34.836Z,984.75
2022-11-24T03:04:35.029Z,984.77
2022-11-24T03:05:34.883Z,984.79
2022-11-24T03:06:34.883Z,984.75
2022-11-24T03:07:34.940Z,984.72
2022-11-24T03:08:34.896Z,984.69
2022-11-24T03:09:35.138Z,984.71
2022-11-24T03:10:34.939Z,984.69
2022-11-24T03:11:34.948Z,984.69
2022-11-24T03:12:34.934Z,984.72
2022-11-24T03:13:34.946Z,984.77
2022-11-24T03:14:35.285Z,984.75
2022-11-24T03:15:35.041Z,984.75
2022-11-24T03:16:35.004Z,984.72
2022-11-24T03:17:35.005Z,984.79
2022-11-24T03:18:35.020Z,984.72
2022-11-24T03:19:35.030Z,984.74
2022-11-24T03:20:35.059Z,984.80
2022-11-24T03:21:35.064Z,984.80
2022-11-24T03:22:35.055Z,984.77
2022-11-24T03:23:35.083Z,984.74
2022-11-24T03:24:35.343Z,984.73
2022-11-24T03:25:35.114Z,984.72
2022-11-24T03:26:35.117Z,984.63
2022-11-24T03:27:35.128Z,984.59
2022-11-24T03:28:35.130Z,984.62
2022-11-24T03:29:35.165Z,984.61
2022-11-24T03:30:35.168Z,984.70
2022-11-24T03:31:35.262Z,984.71
2022-11-24T03:32:35.177Z,984.65
2022-11-24T03:33:35.197Z,984.70
2022-11-24T03:34:35.518Z,984.70
2022-11-24T03:35:35.209Z,984.68
2022-11-24T03:36:35.234Z,984.69
2022-11-24T03:37:35.244Z,984.74
2022-11-24T03:38:35.240Z,984.58
2022-11-24T03:39:35.257Z,984.63
2022-11-24T03:40:35.291Z,984.57
2022-11-24T03:41:35.302Z,984.60
2022-11-24T03:42:35.293Z,984.58
2022-11-24T03:43:39.103Z,984.66
2022-11-24T03:44:35.576Z,984.67
2022-11-24T03:45:45.877Z,984.76
2022-11-24T03:46:35.371Z,984.74
2022-11-24T03:47:35.317Z,984.85
2022-11-24T03:48:35.336Z,984.81
2022-11-24T03:49:35.512Z,984.84
2022-11-24T03:50:35.328Z,984.88
2022-11-24T03:51:35.338Z,984.83
2022-11-24T03:52:35.312Z,984.80
2022-11-24T03:53:35.314Z,984.84
2022-11-24T03:54:35.523Z,984.86
2022-11-24T03:55:35.316Z,984.77
2022-11-24T03:56:35.340Z,984.86
2022-11-24T03:57:35.325Z,984.87
2022-11-24T03:58:35.323Z,984.88
2022-11-24T03:59:35.351Z,984.93
2022-11-24T04:00:35.316Z,984.90
2022-11-24T04:01:35.372Z,984.96
2022-11-24T04:02:35.392Z,984.94
2022-11-24T04:03:35.323Z,984.96
2022-11-24T04:04:35.605Z,984.95
2022-11-24T04:05:35.327Z,984.98
2022-11-24T04:06:35.363Z,984.94
2022-11-24T04:07:35.459Z,985.00
2022-11-24T04:08:35.338Z,984.99
2022-11-24T04:09:35.337Z,984.94
2022-11-24T04:10:35.333Z,985.06
2022-11-24T04:11:35.353Z,985.02
2022-11-24T04:12:35.344Z,984.98
2022-11-24T04:13:35.367Z,985.06
2022-11-24T04:14:35.758Z,985.07
2022-11-24T04:15:35.349Z,985.04
2022-11-24T04:16:35.400Z,985.04
2022-11-24T04:17:35.372Z,985.06
2022-11-24T04:18:35.372Z,985.13
2022-11-24T04:19:35.334Z,985.11
2022-11-24T04:20:35.396Z,985.04
2022-11-24T04:21:35.350Z,985.04
2022-11-24T04:22:35.370Z,985.07
2022-11-24T04:23:35.350Z,985.09
2022-11-24T04:24:35.593Z,985.04
2022-11-24T04:25:35.334Z,985.06
2022-11-24T04:26:35.344Z,985.01
2022-11-24T04:27:35.368Z,985.03
2022-11-24T04:28:35.357Z,985.01
2022-11-24T04:29:35.354Z,985.04
2022-11-24T04:30:35.369Z,985.04
2022-11-24T04:31:35.425Z,985.02
2022-11-24T04:32:35.389Z,985.06
2022-11-24T04:33:35.361Z,985.05
2022-11-24T04:34:35.757Z,985.02
2022-11-24T04:35:35.351Z,985.09
2022-11-24T04:36:35.363Z,985.08
2022-11-24T04:37:35.373Z,985.16
2022-11-24T04:39:23.084Z,985.14
2022-11-24T04:39:35.365Z,985.15
2022-11-24T04:40:35.388Z,985.19
2022-11-24T04:41:35.365Z,985.25
2022-11-24T04:42:35.374Z,985.25
2022-11-24T04:43:40.453Z,985.23
2022-11-24T04:44:35.802Z,985.24
2022-11-24T04:45:35.364Z,985.23
2022-11-24T04:46:35.419Z,985.29
2022-11-24T04:47:35.374Z,985.31
2022-11-24T04:48:35.392Z,985.27
2022-11-24T04:49:35.371Z,985.31
2022-11-24T04:50:35.389Z,985.30
2022-11-24T04:51:35.375Z,985.27
2022-11-24T04:52:35.361Z,985.25
2022-11-24T04:53:35.390Z,985.23
2022-11-24T04:54:35.787Z,985.26
2022-11-24T04:55:35.381Z,985.30
2022-11-24T04:56:35.371Z,985.31
2022-11-24T04:57:35.384Z,985.37
2022-11-24T04:58:35.464Z,985.33
2022-11-24T04:59:35.403Z,985.29
2022-11-24T05:00:35.374Z,985.35
2022-11-24T05:01:35.421Z,985.33
2022-11-24T05:02:35.384Z,985.37
2022-11-24T05:03:35.384Z,985.35
2022-11-24T05:04:35.782Z,985.33
2022-11-24T05:05:35.396Z,985.29
2022-11-24T05:06:35.394Z,985.35
2022-11-24T05:07:35.423Z,985.31
2022-11-24T05:08:35.398Z,985.42
2022-11-24T05:09:58.158Z,985.31
2022-11-24T05:10:35.400Z,985.38
2022-11-24T05:11:35.390Z,985.43
2022-11-24T05:12:35.397Z,985.43
2022-11-24T05:13:35.408Z,985.46
2022-11-24T05:14:35.626Z,985.39
2022-11-24T05:15:35.403Z,985.49
2022-11-24T05:16:35.453Z,985.48
2022-11-24T05:17:35.407Z,985.46
2022-11-24T05:18:35.417Z,985.58
2022-11-24T05:19:35.405Z,985.56
2022-11-24T05:20:35.435Z,985.52
2022-11-24T05:21:35.399Z,985.58
2022-11-24T05:22:35.395Z,985.53
2022-11-24T05:23:35.399Z,985.62
2022-11-24T05:24:35.851Z,985.59
2022-11-24T05:25:35.415Z,985.69
2022-11-24T05:26:35.416Z,985.70
2022-11-24T05:27:35.411Z,985.63
2022-11-24T05:28:35.418Z,985.65
2022-11-24T05:29:35.413Z,985.70
2022-11-24T05:30:35.433Z,985.79
2022-11-24T05:31:35.449Z,985.72
2022-11-24T05:32:35.436Z,985.76
2022-11-24T05:33:35.406Z,985.83
2022-11-24T05:34:35.820Z,985.85
2022-11-24T05:35:35.428Z,985.78
2022-11-24T05:36:35.452Z,985.85
2022-11-24T05:37:35.400Z,985.80
2022-11-24T05:38:35.444Z,985.85
2022-11-24T05:39:35.429Z,985.82
2022-11-24T05:40:35.471Z,985.76
2022-11-24T05:41:35.422Z,985.77
2022-11-24T05:42:35.434Z,985.81
2022-11-24T05:43:35.448Z,985.77
2022-11-24T05:44:35.896Z,985.77
2022-11-24T05:45:35.430Z,985.79
2022-11-24T05:46:35.480Z,985.75
2022-11-24T05:47:35.455Z,985.70
2022-11-24T05:48:35.447Z,985.84
2022-11-24T05:49:35.429Z,985.81
2022-11-24T05:50:35.430Z,985.81
2022-11-24T05:51:35.468Z,985.79
2022-11-24T05:52:35.438Z,985.80
2022-11-24T05:53:35.443Z,985.74
2022-11-24T05:54:35.828Z,985.79
2022-11-24T05:55:35.442Z,985.76
2022-11-24T05:56:35.454Z,985.76
2022-11-24T05:57:35.456Z,985.82
2022-11-24T05:58:35.441Z,985.80
2022-11-24T05:59:35.540Z,985.85
2022-11-24T06:00:35.440Z,985.77
2022-11-24T06:01:35.501Z,985.86
2022-11-24T06:02:35.569Z,985.85
2022-11-24T06:03:35.444Z,985.81
2022-11-24T06:04:35.682Z,985.85
2022-11-24T06:05:35.440Z,985.81
2022-11-24T06:06:35.457Z,985.84
2022-11-24T06:07:35.531Z,985.87
2022-11-24T06:08:35.476Z,985.96
2022-11-24T06:09:35.448Z,985.88
2022-11-24T06:10:35.458Z,985.89
2022-11-24T06:11:35.451Z,985.92
2022-11-24T06:12:35.453Z,985.91
2022-11-24T06:13:35.498Z,985.96
2022-11-24T06:14:35.799Z,985.97
2022-11-24T06:15:35.449Z,985.98
2022-11-24T06:16:35.520Z,985.97
2022-11-24T06:17:35.453Z,986.00
2022-11-24T06:18:35.467Z,985.98
2022-11-24T06:19:40.022Z,986.00
2022-11-24T06:20:35.462Z,985.87
2022-11-24T06:21:35.469Z,985.83
2022-11-24T06:22:35.452Z,985.87
2022-11-24T06:23:35.544Z,985.89
2022-11-24T06:24:35.696Z,985.94
2022-11-24T06:25:35.458Z,985.87
2022-11-24T06:26:35.454Z,985.96
2022-11-24T06:27:35.460Z,985.91
2022-11-24T06:28:35.482Z,985.86
2022-11-24T06:29:35.496Z,986.08
2022-11-24T06:30:35.466Z,986.01
2022-11-24T06:31:35.520Z,986.05
2022-11-24T06:32:35.484Z,986.09
2022-11-24T06:33:35.487Z,986.08
2022-11-24T06:34:35.694Z,986.04
2022-11-24T06:35:35.483Z,986.10
2022-11-24T06:36:35.514Z,986.13
2022-11-24T06:37:35.492Z,986.12
2022-11-24T06:38:35.454Z,986.07
2022-11-24T06:39:35.528Z,986.12
2022-11-24T06:40:35.480Z,986.12
2022-11-24T06:41:35.508Z,986.11
2022-11-24T06:42:35.473Z,986.08
2022-11-24T06:43:35.485Z,986.14
2022-11-24T06:44:35.736Z,986.09
2022-11-24T06:45:35.529Z,986.10
2022-11-24T06:46:35.453Z,986.16
2022-11-24T06:47:35.488Z,986.09
2022-11-24T06:48:35.514Z,986.16
2022-11-24T06:49:35.502Z,986.14
2022-11-24T06:50:35.482Z,986.25
2022-11-24T06:51:35.503Z,986.18
2022-11-24T06:52:35.498Z,986.23
2022-11-24T06:53:35.483Z,986.26
2022-11-24T06:54:35.678Z,986.25
2022-11-24T06:55:35.510Z,986.26
2022-11-24T06:56:35.474Z,986.24
2022-11-24T06:57:35.503Z,986.30
2022-11-24T06:58:35.496Z,986.25
2022-11-24T06:59:35.498Z,986.29
2022-11-24T07:00:35.560Z,986.29
2022-11-24T07:01:35.529Z,986.31
2022-11-24T07:02:35.556Z,986.28
2022-11-24T07:03:35.564Z,986.34
2022-11-24T07:04:35.693Z,986.30
2022-11-24T07:05:35.685Z,986.32
2022-11-24T07:06:35.507Z,986.34
2022-11-24T07:07:35.556Z,986.28
2022-11-24T07:08:35.504Z,986.30
2022-11-24T07:09:35.509Z,986.31
2022-11-24T07:10:35.581Z,986.36
2022-11-24T07:11:35.517Z,986.32
2022-11-24T07:12:35.519Z,986.35
2022-11-24T07:13:35.502Z,986.33
2022-11-24T07:14:35.894Z,986.32
2022-11-24T07:15:35.518Z,986.36
2022-11-24T07:16:35.549Z,986.38
2022-11-24T07:17:35.508Z,986.36
2022-11-24T07:18:35.512Z,986.40
2022-11-24T07:19:35.510Z,986.45
2022-11-24T07:20:35.535Z,986.41
2022-11-24T07:21:35.513Z,986.46
2022-11-24T07:22:35.538Z,986.41
2022-11-24T07:23:35.523Z,986.48
2022-11-24T07:24:35.817Z,986.44
2022-11-24T07:25:35.564Z,986.50
2022-11-24T07:26:35.518Z,986.47
2022-11-24T07:27:35.576Z,986.46
2022-11-24T07:28:35.541Z,986.49
2022-11-24T07:29:35.539Z,986.45
2022-11-24T07:30:35.517Z,986.49
2022-11-24T07:31:35.584Z,986.55
2022-11-24T07:32:35.616Z,986.55
2022-11-24T07:33:35.549Z,986.51
2022-11-24T07:34:35.843Z,986.52
2022-11-24T07:35:35.529Z,986.56
2022-11-24T07:36:35.535Z,986.61
2022-11-24T07:37:35.529Z,986.56
2022-11-24T07:38:35.629Z,986.55
2022-11-24T07:39:57.796Z,986.53
2022-11-24T07:40:57.816Z,986.57
2022-11-24T07:41:57.819Z,986.56
2022-11-24T07:42:57.813Z,986.62
2022-11-24T07:43:57.813Z,986.65
2022-11-24T07:44:57.817Z,986.72
2022-11-24T07:45:57.857Z,986.72
2022-11-24T07:46:57.806Z,986.66
2022-11-24T07:47:57.798Z,986.81
2022-11-24T07:48:57.800Z,986.71
2022-11-24T07:49:57.825Z,986.77
2022-11-24T07:50:57.809Z,986.86
2022-11-24T07:51:57.842Z,986.85
2022-11-24T07:52:57.811Z,986.86
2022-11-24T07:53:57.827Z,986.94
2022-11-24T07:54:57.892Z,986.88
2022-11-24T07:55:57.844Z,986.97
2022-11-24T07:56:57.834Z,986.91
2022-11-24T07:57:57.806Z,986.93
2022-11-24T07:58:57.837Z,987.03
2022-11-24T07:59:57.847Z,987.06
2022-11-24T08:00:57.825Z,986.95
2022-11-24T08:01:57.914Z,986.97
2022-11-24T08:02:57.829Z,987.00
2022-11-24T08:03:57.901Z,987.02
2022-11-24T08:04:57.846Z,987.01
2022-11-24T08:06:22.167Z,987.04
2022-11-24T08:06:57.856Z,987.06
2022-11-24T08:07:57.889Z,987.03
2022-11-24T08:08:57.834Z,987.08
2022-11-24T08:09:57.862Z,987.08
2022-11-24T08:10:57.829Z,987.10
2022-11-24T08:11:57.837Z,987.19
2022-11-24T08:12:57.834Z,987.12
2022-11-24T08:13:57.863Z,987.19
2022-11-24T08:14:57.917Z,987.17
2022-11-24T08:15:57.853Z,987.16
2022-11-24T08:16:58.068Z,987.12
2022-11-24T08:17:57.985Z,987.19
2022-11-24T08:18:58.013Z,987.19
2022-11-24T08:19:58.032Z,987.21
2022-11-24T08:20:58.561Z,987.17
2022-11-24T08:21:58.044Z,987.23
2022-11-24T08:22:58.068Z,987.26
2022-11-24T08:23:58.094Z,987.20
2022-11-24T08:24:58.073Z,987.31
2022-11-24T08:25:58.105Z,987.23
2022-11-24T08:26:58.113Z,987.27
2022-11-24T08:27:58.127Z,987.24
2022-11-24T08:28:58.126Z,987.31
2022-11-24T08:29:58.146Z,987.36
2022-11-24T08:30:58.141Z,987.30
2022-11-24T08:31:58.266Z,987.38
2022-11-24T08:32:58.192Z,987.33
2022-11-24T08:33:58.198Z,987.30
2022-11-24T08:35:13.030Z,987.31
2022-11-24T08:35:58.197Z,987.37
2022-11-24T08:36:58.186Z,987.34
2022-11-24T08:38:03.185Z,987.37
2022-11-24T08:38:58.190Z,987.34
2022-11-24T08:39:58.202Z,987.35
2022-11-24T08:40:58.201Z,987.41
2022-11-24T08:41:58.221Z,987.42
2022-11-24T08:42:58.205Z,987.46
2022-11-24T08:43:58.227Z,987.41
2022-11-24T08:44:59.139Z,987.42
2022-11-24T08:45:58.362Z,987.49
2022-11-24T08:46:58.225Z,987.46
2022-11-24T08:47:58.302Z,987.45
2022-11-24T08:48:58.201Z,987.49
2022-11-24T08:49:58.207Z,987.53
2022-11-24T08:50:58.193Z,987.59
2022-11-24T08:51:58.213Z,987.57
2022-11-24T08:52:58.208Z,987.59
2022-11-24T08:53:58.366Z,987.61
2022-11-24T08:54:58.219Z,987.55
2022-11-24T08:55:58.217Z,987.61
2022-11-24T08:56:58.231Z,987.64
2022-11-24T08:57:58.224Z,987.61
2022-11-24T08:58:58.281Z,987.61
2022-11-24T08:59:58.219Z,987.63
2022-11-24T09:00:58.297Z,987.73
2022-11-24T09:01:58.440Z,987.72
2022-11-24T09:02:58.287Z,987.72
2022-11-24T09:03:58.344Z,987.69
2022-11-24T09:04:58.289Z,987.75
2022-11-24T09:05:58.293Z,987.79
2022-11-24T09:06:58.324Z,987.78
2022-11-24T09:07:58.438Z,987.88
2022-11-24T09:08:58.357Z,987.78
2022-11-24T09:09:58.353Z,987.81
2022-11-24T09:10:58.371Z,987.82
2022-11-24T09:11:58.398Z,987.88
2022-11-24T09:12:58.406Z,987.85
2022-11-24T09:13:58.428Z,987.92
2022-11-24T09:14:58.403Z,987.90
2022-11-24T09:15:58.430Z,987.91
2022-11-24T09:16:58.486Z,987.87
2022-11-24T09:17:58.484Z,987.91
2022-11-24T09:18:58.482Z,987.87
2022-11-24T09:19:58.490Z,987.93
2022-11-24T09:20:58.506Z,987.91
2022-11-24T09:21:58.494Z,987.96
2022-11-24T09:22:58.511Z,987.97
2022-11-24T09:23:58.532Z,987.92
2022-11-24T09:24:58.564Z,987.90
2022-11-24T09:25:58.544Z,987.94
2022-11-24T09:26:58.552Z,987.97
2022-11-24T09:27:58.565Z,987.97
2022-11-24T09:28:58.579Z,987.91
2022-11-24T09:29:58.594Z,988.02
2022-11-24T09:30:58.692Z,987.94
2022-11-24T09:32:02.108Z,987.91
2022-11-24T09:32:58.617Z,988.11
2022-11-24T09:33:58.634Z,988.06
2022-11-24T09:34:58.651Z,988.17
2022-11-24T09:35:58.628Z,987.97
2022-11-24T09:36:58.626Z,988.03
2022-11-24T09:37:58.671Z,988.04
2022-11-24T09:38:58.672Z,988.08
2022-11-24T09:39:58.617Z,988.16
2022-11-24T09:40:58.641Z,988.15
2022-11-24T09:41:58.637Z,988.15
2022-11-24T09:42:58.627Z,988.11
2022-11-24T09:43:58.665Z,988.09
2022-11-24T09:44:58.632Z,988.26
2022-11-24T09:46:05.402Z,988.19
2022-11-24T09:46:58.688Z,988.26
2022-11-24T09:47:58.636Z,988.22
2022-11-24T09:48:58.656Z,988.30
2022-11-24T09:49:58.658Z,988.28
2022-11-24T09:50:58.637Z,988.30
2022-11-24T09:51:58.636Z,988.28
2022-11-24T09:52:58.664Z,988.18
2022-11-24T09:53:58.647Z,988.25
2022-11-24T09:54:58.663Z,988.21
2022-11-24T09:55:58.636Z,988.13
2022-11-24T09:56:58.634Z,988.19
2022-11-24T09:57:58.667Z,988.29
2022-11-24T09:58:58.674Z,988.26
2022-11-24T09:59:58.670Z,988.26
2022-11-24T10:00:58.735Z,988.35
2022-11-24T10:01:58.738Z,988.28
2022-11-24T10:02:58.643Z,988.29
2022-11-24T10:04:04.263Z,988.39
2022-11-24T10:04:58.694Z,988.31
2022-11-24T10:05:58.672Z,988.41
2022-11-24T10:06:58.664Z,988.44
2022-11-24T10:07:58.695Z,988.39
2022-11-24T10:08:58.661Z,988.36
2022-11-24T10:09:58.651Z,988.36
2022-11-24T10:10:58.673Z,988.30
2022-11-24T10:11:58.673Z,988.35
2022-11-24T10:12:58.667Z,988.36
2022-11-24T10:13:58.674Z,988.36
2022-11-24T10:14:58.653Z,988.40
2022-11-24T10:15:58.756Z,988.36
2022-11-24T10:16:58.642Z,988.41
2022-11-24T10:17:58.674Z,988.39
2022-11-24T10:18:58.663Z,988.40
2022-11-24T10:19:58.668Z,988.45
2022-11-24T10:20:58.696Z,988.52
2022-11-24T10:21:58.678Z,988.47
2022-11-24T10:22:58.694Z,988.47
2022-11-24T10:23:58.716Z,988.50
2022-11-24T10:24:58.671Z,988.53
2022-11-24T10:25:58.727Z,988.57
2022-11-24T10:26:58.677Z,988.56
2022-11-24T10:27:58.688Z,988.55
2022-11-24T10:28:58.674Z,988.55
2022-11-24T10:29:58.672Z,988.56
2022-11-24T10:30:58.721Z,988.55
2022-11-24T10:31:58.681Z,988.53
2022-11-24T10:32:58.753Z,988.64
2022-11-24T10:33:58.681Z,988.62
2022-11-24T10:34:58.702Z,988.64
2022-11-24T10:35:58.717Z,988.60
2022-11-24T10:36:58.698Z,988.60
2022-11-24T10:37:58.693Z,988.59
2022-11-24T10:38:58.686Z,988.59
2022-11-24T10:40:00.274Z,988.64
2022-11-24T10:40:58.806Z,988.55
2022-11-24T10:41:58.856Z,988.57
2022-11-24T10:42:58.687Z,988.56
2022-11-24T10:43:58.690Z,988.60
2022-11-24T10:44:58.722Z,988.52
2022-11-24T10:45:58.709Z,988.54
2022-11-24T10:46:58.778Z,988.60
2022-11-24T10:47:58.750Z,988.58
2022-11-24T10:48:58.713Z,988.58
2022-11-24T10:49:58.717Z,988.61
2022-11-24T10:50:58.736Z,988.59
2022-11-24T10:51:58.762Z,988.57
2022-11-24T10:52:58.770Z,988.64
2022-11-24T10:53:59.887Z,988.65
2022-11-24T10:54:58.798Z,988.60
2022-11-24T10:55:58.802Z,988.59
2022-11-24T10:56:58.824Z,988.63
2022-11-24T10:57:58.823Z,988.58
2022-11-24T10:58:58.828Z,988.68
2022-11-24T10:59:58.861Z,988.64
2022-11-24T11:00:58.922Z,988.73
2022-11-24T11:01:58.966Z,988.65
2022-11-24T11:02:58.967Z,988.66
2022-11-24T11:03:58.895Z,988.68
2022-11-24T11:04:58.918Z,988.73
2022-11-24T11:05:58.922Z,988.69
2022-11-24T11:06:58.966Z,988.72
2022-11-24T11:08:05.234Z,988.74
2022-11-24T11:08:58.990Z,988.78
2022-11-24T11:09:58.997Z,988.81
2022-11-24T11:10:58.998Z,988.77
2022-11-24T11:11:59.116Z,988.80
2022-11-24T11:12:58.939Z,988.77
2022-11-24T11:14:03.456Z,988.78
2022-11-24T11:14:58.945Z,988.84
2022-11-24T11:15:59.011Z,988.73
2022-11-24T11:16:58.970Z,988.76
2022-11-24T11:17:58.979Z,988.71
2022-11-24T11:18:58.969Z,988.77
2022-11-24T11:20:02.311Z,988.77
2022-11-24T11:20:58.955Z,988.77
2022-11-24T11:21:58.965Z,988.75
2022-11-24T11:22:58.979Z,988.80
2022-11-24T11:23:58.959Z,988.87
2022-11-24T11:24:58.970Z,988.82
2022-11-24T11:25:58.959Z,988.84
2022-11-24T11:26:58.967Z,988.84
2022-11-24T11:27:59.807Z,988.82
2022-11-24T11:31:15.180Z,988.88
2022-11-24T11:31:17.756Z,988.90
2022-11-24T11:34:08.248Z,989.04
2022-11-24T11:34:58.975Z,989.06
2022-11-24T11:35:58.984Z,989.01
2022-11-24T11:36:58.975Z,988.96
2022-11-24T11:37:58.987Z,989.01
2022-11-24T11:38:59.001Z,988.97
2022-11-24T11:39:58.992Z,989.01
2022-11-24T11:40:59.001Z,988.99
2022-11-24T11:41:59.003Z,989.02
2022-11-24T11:43:03.275Z,989.03
2022-11-24T11:43:58.978Z,989.01
2022-11-24T11:44:59.023Z,989.08
2022-11-24T11:45:59.107Z,989.03
2022-11-24T11:46:59.093Z,989.02
2022-11-24T11:47:58.990Z,989.02
2022-11-24T11:48:58.984Z,989.10
2022-11-24T11:49:59.006Z,989.08
2022-11-24T11:51:22.436Z,989.08
2022-11-24T11:51:59.000Z,989.06
2022-11-24T11:52:59.053Z,989.06
2022-11-24T11:53:59.024Z,989.10
2022-11-24T11:54:59.001Z,989.09
2022-11-24T11:55:59.020Z,989.00
2022-11-24T11:56:58.987Z,989.00
2022-11-24T11:57:59.004Z,989.01
2022-11-24T11:58:59.012Z,989.05
2022-11-24T11:59:59.030Z,989.05
2022-11-24T12:00:58.998Z,989.09
2022-11-24T12:01:58.980Z,989.08
2022-11-24T12:02:59.093Z,989.12
2022-11-24T12:03:59.119Z,989.07
2022-11-24T12:04:58.997Z,989.13
2022-11-24T12:05:59.004Z,989.16
2022-11-24T12:06:59.004Z,989.16
2022-11-24T12:08:01.320Z,989.16
2022-11-24T12:09:18.715Z,989.20
2022-11-24T12:09:59.001Z,989.10
2022-11-24T12:10:59.019Z,989.19
2022-11-24T12:11:59.020Z,989.16
2022-11-24T12:12:59.027Z,989.16
2022-11-24T12:13:59.030Z,989.17
2022-11-24T12:14:59.015Z,989.25
2022-11-24T12:15:59.150Z,989.21
2022-11-24T12:16:59.040Z,989.22
2022-11-24T12:17:59.019Z,989.17
2022-11-24T12:18:59.297Z,989.23
2022-11-24T12:19:59.033Z,989.22
2022-11-24T12:20:59.009Z,989.21
2022-11-24T12:21:59.039Z,989.18
2022-11-24T12:22:59.017Z,989.23
2022-11-24T12:23:59.043Z,989.10
2022-11-24T12:24:59.129Z,989.26
2022-11-24T12:25:59.037Z,989.20
2022-11-24T12:26:59.027Z,989.21
2022-11-24T12:27:59.021Z,989.15
2022-11-24T12:28:59.040Z,989.13
2022-11-24T12:29:59.077Z,989.15
2022-11-24T12:30:59.093Z,989.15
2022-11-24T12:31:59.066Z,989.11